createdAt,value
2019-04-10T00:03:44.021Z,85.80
2019-04-10T00:07:50.069Z,86.80
2019-04-10T00:11:56.973Z,86.30
2019-04-10T00:16:03.687Z,85.30
2019-04-10T00:20:09.939Z,85.30
2019-04-10T00:24:15.672Z,85.70
2019-04-10T00:28:21.474Z,84.90
2019-04-10T00:32:27.897Z,86.00
2019-04-10T00:36:35.228Z,85.00
2019-04-10T00:40:41.594Z,86.80
2019-04-10T00:44:48.056Z,86.50
2019-04-10T00:48:54.521Z,86.30
2019-04-10T00:53:00.905Z,86.40
2019-04-10T00:57:07.712Z,87.10
2019-04-10T01:01:14.390Z,87.90
2019-04-10T01:05:20.144Z,88.80
2019-04-10T01:09:25.974Z,90.10
2019-04-10T01:13:32.648Z,90.30
2019-04-10T01:17:40.226Z,90.60
2019-04-10T01:21:46.460Z,90.80
2019-04-10T01:25:52.330Z,91.10
2019-04-10T01:29:58.080Z,91.00
2019-04-10T01:34:03.832Z,91.10
2019-04-10T01:38:09.525Z,91.30
2019-04-10T01:42:15.228Z,91.00
2019-04-10T01:46:22.295Z,90.90
2019-04-10T01:50:28.584Z,91.50
2019-04-10T01:54:35.271Z,91.10
2019-04-10T01:58:43.399Z,91.00
2019-04-10T02:02:51.778Z,91.40
2019-04-10T02:06:57.973Z,91.10
2019-04-10T02:11:04.842Z,90.80
2019-04-10T02:15:14.494Z,90.70
2019-04-10T02:19:19.490Z,90.30
2019-04-10T02:23:26.067Z,90.20
2019-04-10T02:27:32.167Z,90.30
2019-04-10T02:31:39.076Z,90.40
2019-04-10T02:35:45.604Z,89.40
2019-04-10T02:39:55.570Z,88.20
2019-04-10T02:44:00.003Z,87.40
2019-04-10T02:48:07.916Z,87.70
2019-04-10T02:52:14.677Z,88.70
2019-04-10T02:56:21.473Z,89.50
2019-04-10T03:00:28.279Z,89.50
2019-04-10T03:04:35.179Z,89.60
2019-04-10T03:08:58.726Z,89.90
2019-04-10T03:12:48.952Z,90.30
2019-04-10T03:16:55.490Z,90.60
2019-04-10T03:21:01.224Z,90.00
2019-04-10T03:25:08.968Z,89.10
2019-04-10T03:29:15.679Z,89.90
2019-04-10T03:33:26.530Z,89.50
2019-04-10T03:37:28.867Z,87.50
2019-04-10T03:41:34.630Z,88.50
2019-04-10T03:45:41.107Z,88.10
2019-04-10T03:49:46.890Z,88.70
2019-04-10T03:53:52.609Z,89.60
2019-04-10T03:57:58.710Z,87.10
2019-04-10T04:02:05.288Z,87.70
2019-04-10T04:06:11.953Z,87.30
2019-04-10T04:10:18.320Z,89.00
2019-04-10T04:14:24.235Z,87.40
2019-04-10T04:18:30.055Z,87.90
2019-04-10T04:22:36.899Z,87.90
2019-04-10T04:26:43.571Z,88.00
2019-04-10T04:30:51.970Z,88.00
2019-04-10T04:34:56.687Z,88.40
2019-04-10T04:39:12.727Z,87.90
2019-04-10T04:43:12.423Z,87.90
2019-04-10T04:47:18.313Z,88.30
2019-04-10T04:51:25.806Z,87.50
2019-04-10T04:55:31.401Z,87.50
2019-04-10T04:59:37.088Z,89.10
2019-04-10T05:03:42.789Z,88.90
2019-04-10T05:07:56.334Z,88.60
2019-04-10T05:11:55.939Z,87.50
2019-04-10T05:16:02.654Z,87.50
2019-04-10T05:20:09.189Z,89.10
2019-04-10T05:24:15.774Z,88.10
2019-04-10T05:28:22.198Z,89.00
2019-04-10T05:32:28.204Z,89.10
2019-04-10T05:36:33.900Z,88.20
2019-04-10T05:40:40.070Z,88.90
2019-04-10T05:44:45.846Z,88.10
2019-04-10T05:48:52.501Z,88.70
2019-04-10T05:52:58.341Z,88.40
2019-04-10T05:57:04.194Z,87.50
2019-04-10T06:01:09.953Z,88.40
2019-04-10T06:05:16.225Z,88.50
2019-04-10T06:09:22.763Z,88.60
2019-04-10T06:13:28.650Z,86.80
2019-04-10T06:17:34.404Z,85.70
2019-04-10T06:21:40.056Z,85.60
2019-04-10T06:25:45.875Z,86.90
2019-04-10T06:29:51.526Z,85.80
2019-04-10T06:33:58.312Z,85.30
2019-04-10T06:38:04.401Z,87.40
2019-04-10T06:42:10.088Z,85.00
2019-04-10T06:46:16.712Z,85.70
2019-04-10T06:50:23.173Z,84.20
2019-04-10T06:54:28.969Z,85.30
2019-04-10T06:58:34.740Z,85.30
2019-04-10T07:02:40.458Z,85.20
2019-04-10T07:06:55.941Z,85.50
2019-04-10T07:11:02.022Z,84.80
2019-04-10T07:15:02.198Z,84.00
2019-04-10T07:19:10.387Z,83.20
2019-04-10T07:23:22.473Z,82.30
2019-04-10T07:27:23.695Z,83.40
2019-04-10T07:31:32.428Z,82.50
2019-04-10T07:35:38.360Z,83.80
2019-04-10T07:39:44.777Z,82.20
2019-04-10T07:43:54.331Z,81.10
2019-04-10T07:47:58.203Z,82.90
2019-04-10T07:52:04.837Z,82.20
2019-04-10T07:56:15.080Z,82.10
2019-04-10T08:00:18.238Z,82.40
2019-04-10T08:04:23.951Z,81.30
2019-04-10T08:08:30.001Z,82.80
2019-04-10T08:12:44.620Z,81.40
2019-04-10T08:16:44.239Z,80.50
2019-04-10T08:20:50.865Z,82.10
2019-04-10T08:24:56.607Z,82.30
2019-04-10T08:29:02.516Z,82.10
2019-04-10T08:33:08.271Z,82.80
2019-04-10T08:37:14.500Z,82.20
2019-04-10T08:41:21.380Z,82.00
2019-04-10T08:45:38.523Z,82.50
2019-04-10T08:49:34.502Z,82.00
2019-04-10T08:53:40.340Z,81.10
2019-04-10T08:57:46.056Z,80.80
2019-04-10T09:01:51.744Z,82.40
2019-04-10T09:05:58.657Z,81.60
2019-04-10T09:10:06.420Z,79.50
2019-04-10T09:14:12.839Z,80.90
2019-04-10T09:18:18.576Z,80.00
2019-04-10T09:22:25.394Z,79.10
2019-04-10T09:26:31.112Z,79.50
2019-04-10T09:30:37.274Z,78.50
2019-04-10T09:34:45.542Z,78.40
2019-04-10T09:38:50.764Z,76.00
2019-04-10T09:42:57.658Z,76.50
2019-04-10T09:47:03.567Z,76.70
2019-04-10T09:51:11.661Z,76.70
2019-04-10T09:55:18.000Z,75.80
2019-04-10T09:59:34.887Z,74.80
2019-04-10T10:03:32.422Z,75.20
2019-04-10T10:07:39.049Z,74.60
2019-04-10T10:11:44.907Z,74.00
2019-04-10T10:15:51.513Z,74.40
2019-04-10T10:19:57.485Z,71.90
2019-04-10T10:24:04.489Z,71.60
2019-04-10T10:28:11.738Z,70.40
2019-04-10T10:32:17.594Z,71.10
2019-04-10T10:36:34.688Z,69.70
2019-04-10T10:40:31.843Z,70.30
2019-04-10T10:44:38.368Z,70.70
2019-04-10T10:48:44.199Z,71.50
2019-04-10T10:52:50.128Z,71.60
2019-04-10T10:56:56.918Z,71.20
2019-04-10T11:01:03.337Z,71.30
2019-04-10T11:05:10.703Z,69.90
2019-04-10T11:09:18.172Z,69.50
2019-04-10T11:13:24.236Z,70.30
2019-04-10T11:17:30.705Z,70.50
2019-04-10T11:21:36.657Z,68.00
2019-04-10T11:25:42.542Z,69.90
2019-04-10T11:29:48.242Z,68.90
2019-04-10T11:33:56.338Z,68.90
2019-04-10T11:38:02.935Z,69.40
2019-04-10T11:46:16.932Z,67.30
2019-04-10T11:50:25.404Z,66.10
2019-04-10T11:54:32.250Z,65.50
2019-04-10T11:58:48.657Z,67.70
2019-04-10T12:02:47.390Z,67.30
2019-04-10T12:06:55.438Z,67.80
2019-04-10T12:15:08.597Z,65.20
2019-04-10T12:19:15.219Z,65.20
2019-04-10T12:23:21.012Z,66.20
2019-04-10T12:27:27.353Z,64.50
2019-04-10T12:31:34.496Z,63.80
2019-04-10T12:35:40.404Z,67.30
2019-04-10T12:39:46.113Z,65.20
2019-04-10T12:43:52.045Z,64.70
2019-04-10T12:47:58.547Z,63.70
2019-04-10T12:52:04.352Z,63.40
2019-04-10T12:56:10.237Z,62.50
2019-04-10T13:00:20.030Z,62.90
2019-04-10T13:04:25.835Z,62.60
2019-04-10T13:08:50.020Z,63.30
2019-04-10T13:12:39.728Z,63.40
2019-04-10T13:16:45.464Z,64.30
2019-04-10T13:20:51.150Z,64.30
2019-04-10T13:24:57.714Z,62.70
2019-04-10T13:29:03.697Z,62.20
2019-04-10T13:33:09.497Z,63.60
2019-04-10T13:37:15.807Z,64.20
2019-04-10T13:41:21.602Z,63.80
2019-04-10T13:45:27.481Z,61.30
2019-04-10T13:49:33.756Z,61.30
2019-04-10T13:53:39.859Z,61.20
2019-04-10T13:57:46.612Z,59.20
2019-04-10T14:01:52.482Z,60.70
2019-04-10T14:05:58.198Z,59.10
2019-04-10T14:10:07.623Z,60.70
2019-04-10T14:14:13.302Z,57.20
2019-04-10T14:18:19.207Z,59.30
2019-04-10T14:22:26.053Z,60.00
2019-04-10T14:26:45.844Z,60.10
2019-04-10T14:30:43.524Z,57.20
2019-04-10T14:34:50.425Z,58.40
2019-04-10T14:39:08.626Z,57.60
2019-04-10T14:43:03.793Z,57.90
2019-04-10T14:47:10.642Z,57.90
2019-04-10T14:51:17.582Z,57.10
2019-04-10T14:55:29.168Z,58.30
2019-04-10T14:59:35.914Z,58.50
2019-04-10T15:03:42.645Z,58.40
2019-04-10T15:07:48.399Z,58.40
2019-04-10T15:11:55.193Z,56.20
2019-04-10T15:16:01.069Z,55.60
2019-04-10T15:20:08.967Z,56.70
2019-04-10T15:24:15.320Z,53.20
2019-04-10T15:28:21.163Z,54.20
2019-04-10T15:32:26.878Z,54.00
2019-04-10T15:36:32.580Z,55.30
2019-04-10T15:40:38.579Z,56.00
2019-04-10T15:44:44.399Z,56.20
2019-04-10T15:48:50.763Z,51.30
2019-04-10T15:52:57.973Z,51.00
2019-04-10T15:57:04.694Z,54.80
2019-04-10T16:01:12.228Z,52.80
2019-04-10T16:05:18.100Z,54.40
2019-04-10T16:09:25.327Z,53.40
2019-04-10T16:13:38.898Z,53.90
2019-04-10T16:17:48.217Z,54.60
2019-04-10T16:21:56.412Z,55.30
2019-04-10T16:26:02.918Z,54.00
2019-04-10T16:30:12.209Z,53.90
2019-04-10T16:34:18.019Z,53.10
2019-04-10T16:38:24.727Z,54.60
2019-04-10T16:42:30.766Z,52.50
2019-04-10T16:46:36.690Z,56.20
2019-04-10T16:50:43.394Z,53.80
2019-04-10T16:54:49.371Z,53.10
2019-04-10T16:58:56.259Z,52.50
2019-04-10T17:03:02.029Z,58.20
2019-04-10T17:07:08.600Z,54.60
2019-04-10T17:11:14.653Z,54.20
2019-04-10T17:15:20.456Z,52.50
2019-04-10T17:19:26.279Z,55.50
2019-04-10T17:23:32.284Z,56.30
2019-04-10T17:27:38.051Z,55.40
2019-04-10T17:36:10.192Z,54.30
2019-04-10T17:40:27.443Z,53.30
2019-04-10T17:44:24.018Z,56.00
2019-04-10T17:48:30.692Z,53.90
2019-04-10T17:52:38.640Z,56.60
2019-04-10T17:56:44.473Z,54.80
2019-04-10T18:00:52.147Z,56.00
2019-04-10T18:04:58.160Z,57.70
2019-04-10T18:09:05.878Z,56.70
2019-04-10T18:13:11.769Z,57.10
2019-04-10T18:17:18.483Z,57.60
2019-04-10T18:21:24.593Z,54.00
2019-04-10T18:25:30.320Z,56.80
2019-04-10T18:29:36.090Z,55.70
2019-04-10T18:33:42.759Z,56.60
2019-04-10T18:37:49.095Z,55.20
2019-04-10T18:41:55.870Z,59.80
2019-04-10T18:46:10.743Z,56.10
2019-04-10T18:50:12.047Z,58.70
2019-04-10T18:54:18.609Z,56.70
2019-04-10T18:58:26.169Z,57.30
2019-04-10T19:02:32.744Z,55.80
2019-04-10T19:06:58.889Z,56.50
2019-04-10T19:11:16.971Z,58.20
2019-04-10T19:15:12.814Z,58.20
2019-04-10T19:19:18.606Z,59.90
2019-04-10T19:23:25.460Z,57.00
2019-04-10T19:27:32.335Z,57.80
2019-04-10T19:31:40.267Z,58.00
2019-04-10T19:35:46.098Z,57.80
2019-04-10T19:39:51.891Z,57.80
2019-04-10T19:43:58.870Z,62.40
2019-04-10T19:48:06.691Z,63.10
2019-04-10T19:52:51.588Z,58.50
2019-04-10T19:56:57.417Z,59.90
2019-04-10T20:01:05.172Z,60.20
2019-04-10T20:05:11.179Z,58.60
2019-04-10T20:09:18.027Z,58.90
2019-04-10T20:13:24.864Z,58.20
2019-04-10T20:17:54.625Z,58.90
2019-04-10T20:22:00.689Z,56.40
2019-04-10T20:26:07.134Z,58.00
2019-04-10T20:30:15.232Z,55.30
2019-04-10T20:34:21.280Z,57.50
2019-04-10T20:38:51.211Z,56.90
2019-04-10T20:42:56.977Z,58.10
2019-04-10T20:47:02.701Z,57.00
2019-04-10T20:51:08.516Z,61.60
2019-04-10T20:55:14.357Z,55.80
2019-04-10T20:59:20.065Z,57.80
2019-04-10T21:03:25.766Z,58.30
2019-04-10T21:07:31.888Z,58.40
2019-04-10T21:12:02.046Z,55.00
2019-04-10T21:16:00.725Z,57.50
2019-04-10T21:20:09.707Z,57.20
2019-04-10T21:24:16.563Z,54.80
2019-04-10T21:28:22.616Z,56.30
2019-04-10T21:32:35.884Z,59.40
2019-04-10T21:36:51.190Z,55.40
2019-04-10T21:40:57.349Z,57.00
2019-04-10T21:45:03.249Z,53.20
2019-04-10T21:49:09.054Z,57.00
2019-04-10T21:53:14.793Z,53.20
2019-04-10T21:57:20.612Z,54.00
2019-04-10T22:01:26.879Z,50.60
2019-04-10T22:05:51.016Z,50.40
2019-04-10T22:10:13.372Z,55.40
2019-04-10T22:14:21.481Z,52.80
2019-04-10T22:18:51.995Z,55.40
2019-04-10T22:22:57.724Z,51.60
2019-04-10T22:27:03.506Z,52.20
2019-04-10T22:31:09.628Z,55.40
2019-04-10T22:35:15.455Z,53.80
2019-04-10T22:39:21.159Z,53.50
2019-04-10T22:43:28.085Z,52.60
2019-04-10T22:47:35.889Z,50.60
2019-04-10T22:51:41.862Z,54.20
2019-04-10T22:55:48.533Z,54.80
2019-04-10T22:59:55.304Z,53.00
2019-04-10T23:04:01.747Z,53.40
2019-04-10T23:08:09.445Z,50.40
2019-04-10T23:12:16.195Z,51.20
2019-04-10T23:16:22.225Z,51.40
2019-04-10T23:20:27.960Z,52.40
2019-04-10T23:24:33.842Z,54.20
2019-04-10T23:28:39.851Z,53.80
2019-04-10T23:32:45.965Z,48.30
2019-04-10T23:36:51.667Z,54.40
2019-04-10T23:40:57.397Z,52.40
2019-04-10T23:45:03.363Z,52.90
2019-04-10T23:49:09.061Z,57.30
2019-04-10T23:53:14.752Z,55.00
2019-04-10T23:57:21.179Z,52.60
